KCKZ

Pennridge Airport

Perkasie, Pennsylvania, USA
METAR KCKZ 190715Z AUTO 25003KT 10SM CLR M09/M11 A3003 RMK AO2
Observed Flight Rules
Jan-19 @ 07:15 UTC (17 minutes ago) Visual Flight Rules
Wind Visibility Clouds
250° at 3 knots 10 miles
  • Clear skies
Temperatures Readings
Current -9°C / 16°F
Dewpoint -11°C / 12°F
Humidity 86%
Altimeter 30.03" Hg
Pressure 1017 hPa
Elevation 173
METAR KCKZ 190715Z AUTO 25003KT 10SM CLR M09/M11 A3003 RMK AO2
Observed Flight Rules
Jan-19 @ 07:15 UTC
(17 minutes ago)
VFR
Wind Visibility
250° at 3 knots 10 miles
Clouds
  • Clear skies
Temperature Dewpoint
-9°C / 16°F -11°C / 12°F
Humidity Altimeter Pressure
86% 30.03" Hg 1017 hPa